NEWTON-CITY-COUNTY (EWK) CLASS E
     UNICOM 123.00    AWOS 123.875 (316-283-8789)   FBO 316-254-6084
RWY 17-35: 7003' x 100' (CONCRETE)
     RWY 17: MALSR. VASI
     RWY 35: REIL. VASI
RWY 08-26: 3501' x 60' (ASPHALT)
     RWY 08: REIL. PAPI
     RWY 26: REIL. PAPI

 

Available data for KEWK from the past 2 hours
NEWTON, KS
Metar
KEWK 161956Z AUTO 18007KT 10SM BKN049 32/21 A2993 RMK AO2 LTG DSNT SW AND W SLP118 T03170211

19:56 UTC

Wind: 180° 7kt

Visibility: 10 SM

Sky: BKN 4900 ft

Temp: 32 deg C / 89.6 deg F

Dewpoint: 21 deg C / 69.8 deg F

Pressure: 29.93 inHg

Pireps (2)
ICT UA /OV ICT/TM 2033/FL520/TP C750/SK TOP520-530/RM ZKCFD
TUL UA /OV PER340030/TM 1933/FL430/TP HA4T/SK 460-470-TOP/RM ZKCFDC/BL/OH

 

Enter your text here...